Sattley, California
Current Conditions -  °F | °C
As of 8:52 PM on Sunday 21 Dec 2014 (Local Time) from KBLU Reporting Station
Broken Clouds Broken Clouds  
Wind Chill: 43°   Ceiling: 1200
Heat Index: 46°   Visibility: 10mi
Dew Point: 42°   Wind: 6mph
Humidity: 86%   Direction: 310°NW
Pressure: 30.35"   Gusts: NA
Location:  39.6428°N, 120.493°W
Report Text: KBLU 220452Z AUTO 31005KT 10SM BKN012 08/06 A3035 RMK AO2 SLP252 T00780056
Loading
Personal Weather Stations






























Interactive Weather Map New forecast layout! Learn more

10-Day Weather Forecast

Advertisements
Track Severe Weather on mobile